Arlington, Arizona
Current Conditions -  °F | °C
As of 10:55 PM on Wednesday 28 Jan 2015 (Local Time) from KBXK Reporting Station
Overcast Overcast  
Wind Chill: 59°   Ceiling: 12000
Heat Index: 59°   Visibility: 10mi
Dew Point: 57°   Wind: 6mph
Humidity: 94%   Direction: 310°NW
Pressure: 30.09"   Gusts: NA
Location:  33.33°N, 112.77°W
Report Text: KBXK 290555Z AUTO 31005KT 10SM OVC120 15/14 A3009 RMK AO1
Loading
Personal Weather Stations






























Interactive Weather Map New forecast layout! Learn more

10-Day Weather Forecast

Advertisements
Track Severe Weather on mobile